createdAt,value
2022-08-17T00:01:52.737Z,13.17
2022-08-17T00:04:24.319Z,14.10
2022-08-17T00:06:54.076Z,13.00
2022-08-17T00:09:23.215Z,13.23
2022-08-17T00:12:03.924Z,12.93
2022-08-17T00:14:50.757Z,12.43
2022-08-17T00:17:19.899Z,12.73
2022-08-17T00:19:50.637Z,13.50
2022-08-17T00:22:35.327Z,13.67
2022-08-17T00:25:07.572Z,13.83
2022-08-17T00:27:37.359Z,12.77
2022-08-17T00:30:09.065Z,12.77
2022-08-17T00:33:15.854Z,13.03
2022-08-17T00:35:33.721Z,12.10
2022-08-17T00:38:08.260Z,13.67
2022-08-17T00:40:40.804Z,14.27
2022-08-17T00:43:18.698Z,13.80
2022-08-17T00:45:50.397Z,13.37
2022-08-17T00:48:23.834Z,13.37
2022-08-17T00:51:08.267Z,14.10
2022-08-17T00:53:44.378Z,13.67
2022-08-17T00:56:16.960Z,13.73
2022-08-17T00:58:46.365Z,13.20
2022-08-17T01:01:21.225Z,14.37
2022-08-17T01:04:00.010Z,12.90
2022-08-17T01:06:31.862Z,12.37
2022-08-17T01:09:09.540Z,13.70
2022-08-17T01:11:40.491Z,14.80
2022-08-17T01:14:10.152Z,14.73
2022-08-17T01:16:40.167Z,13.43
2022-08-17T01:19:16.578Z,14.70
2022-08-17T01:21:52.361Z,13.83
2022-08-17T01:24:23.163Z,13.80
2022-08-17T01:26:52.663Z,16.60
2022-08-17T01:29:27.444Z,14.57
2022-08-17T01:32:00.606Z,14.37
2022-08-17T01:34:39.864Z,14.90
2022-08-17T01:37:12.415Z,12.97
2022-08-17T01:39:45.691Z,13.93
2022-08-17T01:42:22.525Z,14.13
2022-08-17T01:44:56.968Z,12.93
2022-08-17T01:47:26.265Z,15.53
2022-08-17T01:49:55.816Z,14.00
2022-08-17T01:52:24.863Z,14.60
2022-08-17T01:54:57.173Z,14.00
2022-08-17T01:57:26.154Z,13.23
2022-08-17T01:59:55.594Z,14.37
2022-08-17T02:02:30.856Z,13.13
2022-08-17T02:05:00.742Z,13.50
2022-08-17T02:07:30.194Z,12.67
2022-08-17T02:10:01.638Z,11.77
2022-08-17T02:12:37.912Z,11.80
2022-08-17T02:15:08.716Z,13.00
2022-08-17T02:17:37.966Z,14.20
2022-08-17T02:20:08.740Z,12.40
2022-08-17T02:22:39.497Z,12.47
2022-08-17T02:25:12.265Z,11.90
2022-08-17T02:27:41.973Z,12.07
2022-08-17T02:30:59.916Z,10.10
2022-08-17T02:33:04.276Z,11.77
2022-08-17T02:35:35.704Z,11.60
2022-08-17T02:38:06.443Z,13.03
2022-08-17T02:40:37.743Z,13.53
2022-08-17T02:43:07.302Z,14.40
2022-08-17T02:45:37.552Z,14.30
2022-08-17T02:48:07.509Z,13.30
2022-08-17T02:50:36.802Z,13.30
2022-08-17T02:53:06.487Z,14.27
2022-08-17T02:55:40.823Z,14.73
2022-08-17T02:58:10.993Z,15.27
2022-08-17T03:00:44.544Z,14.13
2022-08-17T03:03:14.093Z,13.80
2022-08-17T03:05:43.445Z,14.20
2022-08-17T03:08:13.204Z,15.80
2022-08-17T03:10:45.386Z,14.60
2022-08-17T03:13:16.032Z,15.60
2022-08-17T03:15:47.133Z,14.17
2022-08-17T03:18:24.860Z,13.63
2022-08-17T03:20:57.375Z,14.67
2022-08-17T03:23:29.547Z,17.00
2022-08-17T03:26:01.844Z,16.27
2022-08-17T03:28:31.439Z,16.63
2022-08-17T03:31:01.313Z,15.87
2022-08-17T03:33:30.963Z,17.30
2022-08-17T03:36:00.738Z,15.10
2022-08-17T03:38:30.011Z,15.07
2022-08-17T03:41:10.437Z,15.27
2022-08-17T03:43:39.904Z,15.73
2022-08-17T03:46:29.040Z,15.40
2022-08-17T03:49:22.535Z,14.27
2022-08-17T03:52:08.801Z,15.43
2022-08-17T03:54:55.375Z,14.67
2022-08-17T03:57:26.040Z,14.70
2022-08-17T03:59:55.011Z,13.67
2022-08-17T04:02:26.493Z,15.43
2022-08-17T04:04:55.698Z,14.07
2022-08-17T04:07:27.721Z,13.83
2022-08-17T04:09:58.399Z,12.10
2022-08-17T04:12:31.308Z,11.97
2022-08-17T04:15:00.704Z,11.57
2022-08-17T04:17:30.810Z,10.87
2022-08-17T04:19:59.984Z,11.07
2022-08-17T04:22:30.601Z,11.43
2022-08-17T04:25:04.522Z,11.07
2022-08-17T04:27:35.038Z,13.07
2022-08-17T04:30:04.138Z,13.63
2022-08-17T04:33:00.634Z,11.80
2022-08-17T04:35:24.670Z,11.50
2022-08-17T04:37:53.877Z,11.57
2022-08-17T04:40:42.356Z,11.67
2022-08-17T04:43:15.180Z,11.40
2022-08-17T04:45:54.840Z,12.13
2022-08-17T04:48:29.754Z,13.03
2022-08-17T04:51:07.709Z,11.60
2022-08-17T04:53:37.001Z,12.20
2022-08-17T04:56:06.467Z,11.93
2022-08-17T04:58:36.772Z,12.33
2022-08-17T05:01:06.471Z,12.00
2022-08-17T05:03:36.752Z,12.43
2022-08-17T05:06:06.422Z,11.30
2022-08-17T05:08:35.826Z,12.57
2022-08-17T05:11:05.632Z,12.23
2022-08-17T05:13:36.164Z,11.27
2022-08-17T05:16:06.250Z,12.43
2022-08-17T05:18:35.451Z,12.37
2022-08-17T05:21:04.642Z,12.07
2022-08-17T05:23:42.626Z,12.13
2022-08-17T05:26:25.712Z,10.83
2022-08-17T05:28:59.781Z,11.37
2022-08-17T05:31:32.647Z,10.77
2022-08-17T05:34:01.868Z,10.40
2022-08-17T05:36:42.545Z,10.70
2022-08-17T05:39:16.564Z,10.90
2022-08-17T05:41:48.336Z,10.00
2022-08-17T05:44:19.160Z,10.17
2022-08-17T05:46:51.819Z,9.83
2022-08-17T05:49:27.414Z,9.60
2022-08-17T05:52:24.517Z,9.90
2022-08-17T05:55:11.128Z,9.27
2022-08-17T05:58:08.518Z,9.10
2022-08-17T06:00:48.285Z,9.90
2022-08-17T06:03:44.630Z,9.23
2022-08-17T06:06:31.201Z,8.80
2022-08-17T06:09:21.209Z,8.33
2022-08-17T06:11:58.990Z,7.87
2022-08-17T06:14:47.029Z,7.93
2022-08-17T06:17:20.558Z,7.60
2022-08-17T06:19:54.975Z,7.87
2022-08-17T06:22:27.707Z,7.50
2022-08-17T06:25:02.049Z,7.87
2022-08-17T06:27:37.451Z,8.10
2022-08-17T06:30:11.270Z,8.20
2022-08-17T06:32:44.249Z,8.30
2022-08-17T06:35:17.055Z,7.80
2022-08-17T06:37:55.866Z,7.97
2022-08-17T06:40:45.940Z,8.00
2022-08-17T06:43:32.937Z,8.10
2022-08-17T06:46:06.748Z,8.03
2022-08-17T06:48:45.676Z,8.37
2022-08-17T06:51:23.685Z,7.60
2022-08-17T06:53:59.742Z,7.93
2022-08-17T06:56:54.277Z,8.10
2022-08-17T06:59:34.818Z,7.83
2022-08-17T07:02:29.162Z,8.30
2022-08-17T07:05:18.148Z,7.53
2022-08-17T07:08:03.419Z,7.70
2022-08-17T07:10:38.374Z,8.40
2022-08-17T07:13:26.176Z,7.80
2022-08-17T07:16:01.366Z,7.63
2022-08-17T07:18:33.535Z,7.60
2022-08-17T07:21:17.569Z,7.23
2022-08-17T07:24:02.454Z,7.40
2022-08-17T07:26:31.527Z,6.87
2022-08-17T07:29:02.748Z,6.83
2022-08-17T07:31:33.995Z,7.53
2022-08-17T07:34:08.417Z,7.00
2022-08-17T07:36:38.961Z,7.33
2022-08-17T07:39:09.676Z,7.10
2022-08-17T07:41:53.036Z,7.13
2022-08-17T07:44:28.230Z,6.83
2022-08-17T07:47:15.366Z,7.17
2022-08-17T07:49:47.836Z,7.07
2022-08-17T07:52:50.986Z,7.07
2022-08-17T07:55:30.216Z,7.33
2022-08-17T07:58:00.516Z,6.87
2022-08-17T08:00:31.643Z,6.82
2022-08-17T08:03:06.377Z,7.13
2022-08-17T08:05:49.727Z,7.10
2022-08-17T08:08:29.839Z,6.63
2022-08-17T08:11:29.698Z,7.00
2022-08-17T08:14:28.293Z,7.10
2022-08-17T08:17:00.865Z,6.32
2022-08-17T08:19:30.849Z,7.40
2022-08-17T08:22:07.164Z,6.60
2022-08-17T08:24:54.749Z,7.28
2022-08-17T08:27:35.965Z,6.85
2022-08-17T08:30:10.318Z,6.75
2022-08-17T08:33:04.651Z,6.15
2022-08-17T08:35:37.620Z,7.13
2022-08-17T08:38:16.144Z,6.35
2022-08-17T08:41:01.195Z,6.80
2022-08-17T08:43:40.979Z,6.88
2022-08-17T08:46:19.823Z,6.97
2022-08-17T08:49:51.890Z,6.30
2022-08-17T08:52:34.444Z,6.90
2022-08-17T08:55:10.710Z,6.85
2022-08-17T08:57:48.698Z,6.93
2022-08-17T09:00:20.614Z,6.72
2022-08-17T09:03:17.366Z,7.25
2022-08-17T09:06:32.269Z,7.18
2022-08-17T09:09:07.148Z,6.47
2022-08-17T09:12:01.027Z,6.50
2022-08-17T09:14:46.619Z,7.35
2022-08-17T09:17:20.751Z,6.43
2022-08-17T09:19:55.539Z,6.40
2022-08-17T09:22:32.148Z,6.70
2022-08-17T09:25:09.818Z,6.75
2022-08-17T09:27:51.919Z,7.00
2022-08-17T09:30:23.868Z,7.47
2022-08-17T09:32:59.247Z,7.40
2022-08-17T09:35:37.018Z,6.78
2022-08-17T09:38:18.171Z,5.88
2022-08-17T09:40:53.222Z,6.35
2022-08-17T09:43:32.290Z,6.35
2022-08-17T09:46:05.596Z,6.70
2022-08-17T09:48:40.671Z,6.88
2022-08-17T09:51:17.173Z,6.45
2022-08-17T09:53:46.247Z,6.03
2022-08-17T09:56:32.017Z,6.15
2022-08-17T09:59:18.625Z,5.75
2022-08-17T10:01:56.527Z,5.72
2022-08-17T10:04:41.178Z,5.78
2022-08-17T10:07:20.415Z,5.55
2022-08-17T10:09:58.437Z,5.88
2022-08-17T10:12:38.518Z,5.65
2022-08-17T10:15:22.704Z,5.55
2022-08-17T10:18:23.585Z,5.25
2022-08-17T10:21:21.324Z,5.50
2022-08-17T10:24:12.545Z,5.47
2022-08-17T10:26:56.953Z,5.07
2022-08-17T10:29:30.903Z,5.47
2022-08-17T10:32:18.880Z,5.28
2022-08-17T10:35:15.031Z,5.60
2022-08-17T10:38:16.381Z,5.30
2022-08-17T10:40:51.333Z,5.47
2022-08-17T10:43:31.410Z,5.22
2022-08-17T10:46:30.026Z,5.57
2022-08-17T10:49:25.948Z,5.10
2022-08-17T10:52:01.049Z,5.70
2022-08-17T10:54:39.628Z,5.43
2022-08-17T10:57:47.035Z,5.55
2022-08-17T11:00:39.122Z,5.30
2022-08-17T11:03:20.065Z,5.63
2022-08-17T11:06:01.638Z,5.78
2022-08-17T11:08:57.949Z,5.45
2022-08-17T11:12:14.479Z,5.65
2022-08-17T11:15:00.878Z,5.47
2022-08-17T11:18:07.427Z,5.80
2022-08-17T11:21:03.531Z,5.63
2022-08-17T11:24:06.381Z,5.65
2022-08-17T11:26:38.253Z,5.80
2022-08-17T11:29:09.904Z,5.38
2022-08-17T11:31:43.467Z,5.03
2022-08-17T11:34:21.795Z,5.70
2022-08-17T11:37:20.496Z,5.18
2022-08-17T11:40:24.444Z,5.40
2022-08-17T11:43:27.779Z,5.20
2022-08-17T11:46:08.465Z,5.70
2022-08-17T11:49:06.961Z,5.38
2022-08-17T11:51:56.121Z,5.20
2022-08-17T11:54:42.755Z,5.30
2022-08-17T11:58:01.988Z,5.55
2022-08-17T12:00:58.125Z,5.25
2022-08-17T12:03:59.266Z,5.25
2022-08-17T12:06:36.958Z,4.85
2022-08-17T12:09:12.802Z,5.15
2022-08-17T12:11:55.508Z,4.95
2022-08-17T12:15:08.410Z,5.07
2022-08-17T12:17:40.767Z,4.70
2022-08-17T12:20:16.727Z,4.90
2022-08-17T12:22:55.199Z,4.80
2022-08-17T12:25:33.270Z,4.80
2022-08-17T12:28:06.291Z,4.70
2022-08-17T12:30:39.229Z,4.65
2022-08-17T12:33:25.611Z,5.25
2022-08-17T12:36:04.484Z,5.00
2022-08-17T12:38:36.404Z,5.10
2022-08-17T12:41:21.767Z,4.80
2022-08-17T12:44:02.589Z,4.80
2022-08-17T12:46:36.515Z,5.13
2022-08-17T12:49:31.608Z,5.35
2022-08-17T12:52:14.880Z,5.15
2022-08-17T12:54:52.835Z,5.88
2022-08-17T12:57:24.769Z,5.40
2022-08-17T12:59:59.301Z,5.45
2022-08-17T13:02:42.859Z,5.13
2022-08-17T13:05:29.225Z,5.43
2022-08-17T13:08:00.909Z,5.25
2022-08-17T13:10:34.041Z,5.63
2022-08-17T13:13:06.408Z,5.55
2022-08-17T13:15:44.895Z,5.60
2022-08-17T13:18:45.528Z,5.63
2022-08-17T13:21:27.109Z,5.10
2022-08-17T13:24:02.157Z,5.90
2022-08-17T13:26:34.833Z,5.38
2022-08-17T13:29:07.503Z,5.70
2022-08-17T13:31:52.367Z,5.63
2022-08-17T13:35:12.306Z,5.93
2022-08-17T13:37:34.019Z,6.20
2022-08-17T13:40:19.862Z,5.93
2022-08-17T13:42:52.952Z,5.72
2022-08-17T13:45:50.889Z,5.95
2022-08-17T13:48:29.243Z,6.07
2022-08-17T13:51:26.939Z,6.25
2022-08-17T13:54:04.342Z,6.13
2022-08-17T13:56:42.413Z,6.20
2022-08-17T13:59:15.322Z,7.43
2022-08-17T14:01:53.154Z,6.28
2022-08-17T14:04:28.257Z,5.90
2022-08-17T14:07:01.607Z,6.75
2022-08-17T14:09:37.161Z,6.60
2022-08-17T14:12:11.007Z,6.55
2022-08-17T14:14:41.104Z,6.70
2022-08-17T14:17:10.931Z,6.55
2022-08-17T14:19:40.542Z,7.03
2022-08-17T14:22:25.295Z,7.03
2022-08-17T14:24:55.207Z,6.25
2022-08-17T14:27:28.318Z,6.97
2022-08-17T14:29:58.405Z,6.63
2022-08-17T14:32:29.485Z,5.63
2022-08-17T14:34:59.638Z,5.97
2022-08-17T14:37:32.114Z,5.97
2022-08-17T14:40:04.848Z,6.90
2022-08-17T14:42:35.442Z,6.68
2022-08-17T14:45:06.701Z,6.50
2022-08-17T14:47:55.674Z,6.30
2022-08-17T14:50:25.127Z,6.53
2022-08-17T14:52:58.280Z,6.45
2022-08-17T14:55:31.398Z,7.20
2022-08-17T14:58:00.834Z,6.65
2022-08-17T15:00:29.940Z,6.93
2022-08-17T15:03:00.810Z,7.10
2022-08-17T15:05:32.399Z,7.10
2022-08-17T15:08:03.999Z,7.07
2022-08-17T15:10:34.465Z,6.43
2022-08-17T15:13:04.146Z,6.88
2022-08-17T15:15:33.616Z,6.85
2022-08-17T15:18:03.841Z,6.50
2022-08-17T15:20:33.709Z,6.53
2022-08-17T15:23:04.090Z,6.18
2022-08-17T15:25:34.754Z,6.47
2022-08-17T15:28:04.158Z,6.07
2022-08-17T15:30:33.649Z,6.45
2022-08-17T15:33:03.354Z,7.03
2022-08-17T15:35:35.080Z,7.00
2022-08-17T15:38:11.680Z,6.72
2022-08-17T15:40:44.443Z,7.00
2022-08-17T15:43:16.103Z,6.60
2022-08-17T15:45:58.695Z,7.30
2022-08-17T15:48:41.707Z,7.13
2022-08-17T15:51:13.336Z,7.05
2022-08-17T15:53:45.430Z,7.28
2022-08-17T15:56:15.751Z,6.57
2022-08-17T15:58:46.992Z,6.90
2022-08-17T16:01:45.449Z,6.95
2022-08-17T16:04:26.881Z,6.65
2022-08-17T16:06:58.342Z,6.80
2022-08-17T16:09:29.065Z,7.40
2022-08-17T16:11:58.680Z,7.30
2022-08-17T16:14:30.280Z,7.78
2022-08-17T16:17:04.234Z,6.93
2022-08-17T16:19:34.538Z,6.90
2022-08-17T16:22:04.007Z,7.20
2022-08-17T16:24:35.835Z,8.18
2022-08-17T16:27:12.679Z,6.53
2022-08-17T16:29:42.888Z,7.32
2022-08-17T16:32:15.065Z,7.15
2022-08-17T16:34:44.416Z,7.18
2022-08-17T16:37:13.626Z,7.15
2022-08-17T16:39:44.227Z,7.30
2022-08-17T16:42:25.218Z,6.75
2022-08-17T16:44:55.501Z,7.38
2022-08-17T16:47:24.973Z,7.18
2022-08-17T16:49:54.625Z,7.38
2022-08-17T16:52:32.489Z,7.35
2022-08-17T16:55:05.106Z,7.60
2022-08-17T16:57:34.776Z,7.15
2022-08-17T17:00:03.975Z,7.15
2022-08-17T17:02:37.766Z,7.25
2022-08-17T17:05:11.071Z,8.00
2022-08-17T17:07:54.053Z,8.23
2022-08-17T17:10:27.876Z,8.35
2022-08-17T17:12:58.335Z,8.48
2022-08-17T17:15:54.657Z,7.25
2022-08-17T17:18:31.128Z,8.43
2022-08-17T17:21:00.816Z,8.13
2022-08-17T17:23:49.777Z,8.38
2022-08-17T17:26:57.557Z,7.78
2022-08-17T17:29:47.768Z,7.72
2022-08-17T17:32:23.338Z,8.43
2022-08-17T17:34:59.360Z,8.40
2022-08-17T17:37:33.768Z,9.13
2022-08-17T17:40:07.927Z,8.77
2022-08-17T17:42:42.144Z,9.13
2022-08-17T17:45:19.027Z,9.23
2022-08-17T17:47:48.788Z,9.13
2022-08-17T17:50:20.190Z,9.02
2022-08-17T17:52:59.088Z,8.77
2022-08-17T17:55:40.276Z,9.97
2022-08-17T17:58:26.422Z,9.07
2022-08-17T18:01:08.812Z,9.33
2022-08-17T18:03:51.927Z,9.60
2022-08-17T18:06:31.528Z,9.03
2022-08-17T18:09:10.617Z,9.50
2022-08-17T18:11:59.779Z,9.67
2022-08-17T18:14:44.720Z,8.63
2022-08-17T18:17:14.987Z,9.67
2022-08-17T18:19:47.391Z,9.90
2022-08-17T18:22:18.995Z,9.53
2022-08-17T18:24:54.343Z,9.93
2022-08-17T18:27:30.695Z,9.43
2022-08-17T18:30:08.635Z,10.23
2022-08-17T18:32:48.147Z,10.37
2022-08-17T18:35:31.735Z,10.50
2022-08-17T18:38:21.665Z,9.73
2022-08-17T18:41:01.275Z,10.43
2022-08-17T18:43:53.210Z,11.40
2022-08-17T18:46:33.447Z,10.87
2022-08-17T18:49:04.496Z,10.30
2022-08-17T18:51:42.778Z,10.60
2022-08-17T18:54:25.786Z,11.27
2022-08-17T18:56:57.580Z,10.97
2022-08-17T18:59:44.757Z,10.80
2022-08-17T19:02:49.739Z,11.37
2022-08-17T19:05:33.606Z,10.47
2022-08-17T19:08:25.447Z,11.70
2022-08-17T19:10:59.038Z,10.87
2022-08-17T19:13:34.688Z,11.13
2022-08-17T19:16:15.397Z,11.47
2022-08-17T19:18:54.126Z,11.57
2022-08-17T19:21:27.338Z,11.23
2022-08-17T19:24:02.427Z,10.67
2022-08-17T19:26:54.224Z,11.33
2022-08-17T19:29:34.239Z,10.37
2022-08-17T19:32:05.960Z,10.73
2022-08-17T19:34:39.643Z,11.17
2022-08-17T19:37:16.286Z,10.60
2022-08-17T19:39:54.075Z,11.03
2022-08-17T19:42:34.460Z,11.20
2022-08-17T19:45:09.865Z,11.57
2022-08-17T19:47:55.075Z,11.63
2022-08-17T19:50:41.614Z,13.33
2022-08-17T19:53:22.350Z,12.83
2022-08-17T19:55:59.306Z,13.77
2022-08-17T19:58:49.586Z,13.30
2022-08-17T20:05:05.145Z,15.83
2022-08-17T20:07:44.076Z,15.70
2022-08-17T20:10:18.422Z,16.43
2022-08-17T20:12:50.867Z,16.20
2022-08-17T20:15:27.476Z,16.80
2022-08-17T20:18:00.697Z,17.87
2022-08-17T20:20:36.706Z,17.07
2022-08-17T20:23:15.396Z,15.97
2022-08-17T20:25:48.355Z,16.73
2022-08-17T20:32:20.924Z,16.23
2022-08-17T20:34:50.291Z,16.27
2022-08-17T20:37:38.788Z,17.73
2022-08-17T20:40:27.654Z,17.13
2022-08-17T20:42:58.366Z,17.70
2022-08-17T20:46:06.417Z,18.50
2022-08-17T20:48:40.883Z,19.57
2022-08-17T20:51:30.937Z,20.17
2022-08-17T20:54:27.081Z,20.27
2022-08-17T20:57:00.804Z,23.30
2022-08-17T20:59:59.810Z,22.20
2022-08-17T21:02:30.723Z,22.93
2022-08-17T21:05:17.731Z,23.20
2022-08-17T21:07:58.232Z,22.67
2022-08-17T21:14:24.216Z,22.23
2022-08-17T21:17:29.876Z,21.03
2022-08-17T21:20:13.063Z,18.80
2022-08-17T21:22:54.678Z,18.20
2022-08-17T21:25:43.521Z,18.97
2022-08-17T21:28:20.696Z,19.30
2022-08-17T21:30:58.863Z,19.57
2022-08-17T21:33:33.119Z,17.43
2022-08-17T21:36:26.505Z,18.93
2022-08-17T21:39:09.073Z,17.03
2022-08-17T21:41:53.146Z,17.17
2022-08-17T21:44:31.853Z,19.13
2022-08-17T21:47:20.172Z,19.53
2022-08-17T21:49:49.759Z,18.27
2022-08-17T21:52:22.733Z,18.37
2022-08-17T21:54:53.733Z,19.20
2022-08-17T21:57:27.721Z,19.57
2022-08-17T21:59:59.190Z,20.87
2022-08-17T22:02:35.312Z,22.73
2022-08-17T22:05:07.077Z,19.57
2022-08-17T22:07:40.542Z,18.47
2022-08-17T22:10:27.753Z,19.47
2022-08-17T22:13:16.480Z,17.13
2022-08-17T22:15:52.677Z,18.80
2022-08-17T22:18:29.294Z,18.67
2022-08-17T22:21:00.470Z,18.03
2022-08-17T22:23:49.893Z,16.80
2022-08-17T22:26:22.102Z,16.60
2022-08-17T22:28:54.495Z,15.10
2022-08-17T22:31:26.465Z,17.67
2022-08-17T22:34:11.555Z,18.60
2022-08-17T22:36:43.353Z,19.40
2022-08-17T22:39:42.013Z,16.43
2022-08-17T22:42:16.386Z,16.47
2022-08-17T22:44:50.554Z,16.40
2022-08-17T22:47:39.376Z,16.70
2022-08-17T22:50:22.701Z,17.80
2022-08-17T22:53:17.637Z,18.00
2022-08-17T22:56:12.473Z,18.30
2022-08-17T22:59:17.629Z,17.30
2022-08-17T23:02:07.629Z,17.90
2022-08-17T23:04:38.989Z,18.07
2022-08-17T23:07:10.116Z,16.07
2022-08-17T23:09:39.870Z,16.93
2022-08-17T23:12:15.695Z,16.13
2022-08-17T23:14:47.414Z,16.67
2022-08-17T23:17:16.967Z,15.47
2022-08-17T23:19:46.644Z,15.57
2022-08-17T23:22:17.589Z,18.53
2022-08-17T23:24:50.836Z,17.70
2022-08-17T23:27:22.601Z,18.53
2022-08-17T23:29:51.858Z,16.43
2022-08-17T23:32:22.735Z,15.40
2022-08-17T23:34:52.433Z,15.50
2022-08-17T23:37:23.000Z,19.23
2022-08-17T23:39:52.669Z,15.10
2022-08-17T23:42:23.735Z,14.33
2022-08-17T23:44:52.752Z,17.43
2022-08-17T23:47:21.649Z,16.77
2022-08-17T23:49:54.240Z,16.03
2022-08-17T23:52:28.268Z,17.30
2022-08-17T23:54:57.962Z,16.17
2022-08-17T23:57:33.673Z,16.30
